Time;durP1;ratioP1;P1;durP2;ratioP2;P2;SDS_P1;SDS_P2;PMS_P1;PMS_P2;Temp;Humidity;BMP_temperature;BMP_pressure;BME280_temperature;BME280_humidity;BME280_pressure;Samples;Min_cycle;Max_cycle;Signal;HPM_P1;HPM_P2
2022/06/20 00:02:52;;;;;;;30.23;16.13;;;;;22.30;95633.00;;;;8372412;28;20237;-69
2022/06/20 00:06:56;;;;;;;25.65;15.27;;;;;22.30;95634.00;;;;8374413;28;20239;-69
2022/06/20 00:11:00;;;;;;;26.58;15.27;;;;;22.30;95628.00;;;;8376438;28;20196;-69
2022/06/20 00:15:04;;;;;;;31.42;15.55;;;;;22.20;95624.00;;;;8375164;28;20204;-69
2022/06/20 00:19:09;;;;;;;27.88;15.75;;;;;22.20;95629.00;;;;8383597;28;20219;-69
2022/06/20 00:23:14;;;;;;;27.27;15.80;;;;;22.20;95620.00;;;;8386084;28;20279;-70
2022/06/20 00:27:17;;;;;;;31.73;17.48;;;;;22.20;95623.00;;;;8379742;28;20788;-70
2022/06/20 00:31:21;;;;;;;30.83;15.93;;;;;22.00;95618.00;;;;8378736;28;20298;-69
2022/06/20 00:35:25;;;;;;;25.20;15.48;;;;;22.00;95620.00;;;;8371220;28;20250;-69
2022/06/20 00:39:29;;;;;;;41.65;17.23;;;;;21.90;95614.00;;;;8371911;28;21988;-69
2022/06/20 00:43:36;;;;;;;28.20;17.02;;;;;21.80;95613.00;;;;8383686;28;20201;-70
2022/06/20 00:47:41;;;;;;;28.80;16.23;;;;;21.70;95608.00;;;;8374616;28;20313;-70
2022/06/20 00:51:49;;;;;;;27.15;16.65;;;;;21.60;95610.00;;;;8379884;28;20585;-70
2022/06/20 00:55:57;;;;;;;30.85;17.73;;;;;21.50;95602.00;;;;8370440;28;20280;-69
2022/06/20 01:00:06;;;;;;;30.30;16.83;;;;;21.50;95604.00;;;;8375036;28;20196;-70
2022/06/20 01:04:14;;;;;;;29.95;16.63;;;;;21.40;95598.00;;;;8363092;28;20965;-70
2022/06/20 01:08:23;;;;;;;29.23;17.10;;;;;21.50;95592.00;;;;8372776;28;20769;-69
2022/06/20 01:12:32;;;;;;;29.95;16.60;;;;;21.40;95594.00;;;;8375404;28;20340;-69
2022/06/20 01:16:36;;;;;;;31.80;14.98;;;;;21.40;95591.00;;;;8381160;28;20237;-70
2022/06/20 01:20:39;;;;;;;30.70;17.05;;;;;21.30;95592.00;;;;8377961;28;20204;-69
2022/06/20 01:24:51;;;;;;;24.48;14.40;;;;;21.30;95590.00;;;;8385376;28;20215;-69
2022/06/20 01:28:59;;;;;;;31.35;17.17;;;;;21.30;95589.00;;;;8370242;28;20254;-68
2022/06/20 01:33:02;;;;;;;27.80;15.57;;;;;21.30;95594.00;;;;8370263;28;20283;-70
2022/06/20 01:37:25;;;;;;;27.15;16.27;;;;;21.20;95587.00;;;;8381274;28;20201;-70
2022/06/20 01:45:59;;;;;;;30.08;15.77;;;;;21.10;95600.00;;;;8384143;28;20275;-68
2022/06/20 01:50:05;;;;;;;29.80;13.43;;;;;21.10;95590.00;;;;8379449;28;20267;-69
2022/06/20 01:54:11;;;;;;;35.15;16.25;;;;;21.10;95590.00;;;;8382376;28;20223;-69
2022/06/20 01:58:19;;;;;;;30.95;15.40;;;;;21.10;95593.00;;;;8384459;28;20200;-70
2022/06/20 02:02:25;;;;;;;25.83;16.05;;;;;21.20;95586.00;;;;8390371;28;20289;-69
2022/06/20 02:06:30;;;;;;;33.35;16.70;;;;;21.20;95584.00;;;;8378698;28;20242;-68
2022/06/20 02:10:39;;;;;;;29.27;15.40;;;;;21.20;95580.00;;;;8390446;28;20227;-69
2022/06/20 02:14:47;;;;;;;29.08;15.25;;;;;21.20;95584.00;;;;8389898;28;20208;-69
2022/06/20 02:18:55;;;;;;;31.15;15.45;;;;;21.20;95583.00;;;;8387483;28;20283;-69
2022/06/20 02:22:59;;;;;;;30.77;15.43;;;;;21.10;95586.00;;;;8389933;28;20200;-69
2022/06/20 02:27:05;;;;;;;37.63;17.45;;;;;21.10;95584.00;;;;8388458;28;20200;-69
2022/06/20 02:31:09;;;;;;;29.35;16.13;;;;;21.10;95595.00;;;;8391506;28;20220;-69
2022/06/20 02:35:16;;;;;;;36.05;15.18;;;;;21.00;95600.00;;;;8388212;28;20196;-69
2022/06/20 02:39:21;;;;;;;34.78;16.05;;;;;20.90;95603.00;;;;8391740;28;20283;-69
2022/06/20 02:43:27;;;;;;;33.15;15.20;;;;;20.90;95603.00;;;;8394289;28;20286;-68
2022/06/20 02:47:32;;;;;;;24.65;14.40;;;;;20.90;95607.00;;;;8383052;28;20189;-69
2022/06/20 02:51:40;;;;;;;23.35;14.43;;;;;20.90;95602.00;;;;8390055;28;20322;-69
2022/06/20 02:55:43;;;;;;;27.27;15.75;;;;;20.80;95610.00;;;;8388347;28;20673;-69
2022/06/20 02:59:51;;;;;;;33.60;17.85;;;;;20.70;95601.00;;;;8388247;28;20200;-69
2022/06/20 03:03:57;;;;;;;37.58;17.40;;;;;20.70;95599.00;;;;8358144;23;21184;-70
2022/06/20 03:08:02;;;;;;;29.08;16.73;;;;;20.80;95585.00;;;;8324223;28;20221;-70
2022/06/20 03:12:08;;;;;;;36.28;16.92;;;;;20.70;95580.00;;;;8320305;28;20201;-69
2022/06/20 03:16:12;;;;;;;37.65;16.70;;;;;20.70;95579.00;;;;8323965;28;20316;-69
2022/06/20 03:20:18;;;;;;;36.50;18.77;;;;;20.70;95577.00;;;;8325444;28;20235;-69
2022/06/20 03:24:24;;;;;;;39.08;16.88;;;;;20.70;95592.00;;;;8324787;28;20561;-68
2022/06/20 03:28:30;;;;;;;26.00;15.23;;;;;20.80;95590.00;;;;8324013;28;20226;-69
2022/06/20 03:32:38;;;;;;;42.08;17.67;;;;;20.90;95584.00;;;;8321388;28;20206;-69
2022/06/20 03:36:43;;;;;;;27.90;15.02;;;;;21.10;95583.00;;;;8323424;28;20677;-69
2022/06/20 03:40:48;;;;;;;42.22;17.55;;;;;21.10;95590.00;;;;8324011;28;20696;-68
2022/06/20 03:44:56;;;;;;;32.17;17.23;;;;;21.30;95590.00;;;;8322006;28;20308;-69
2022/06/20 03:49:04;;;;;;;32.08;17.73;;;;;21.50;95593.00;;;;8321855;28;20228;-70
2022/06/20 03:53:13;;;;;;;31.02;15.98;;;;;21.80;95596.00;;;;8323273;28;20194;-68
2022/06/20 03:57:43;;;;;;;31.13;16.00;;;;;22.10;95587.00;;;;8314274;28;20270;-68
2022/06/20 04:01:51;;;;;;;27.40;15.95;;;;;22.30;95588.00;;;;8320748;28;20226;-70
2022/06/20 04:05:58;;;;;;;33.08;17.23;;;;;22.50;95578.00;;;;8318376;28;20276;-69
2022/06/20 04:14:38;;;;;;;25.75;16.75;;;;;22.30;95555.00;;;;8320492;28;20232;-69
2022/06/20 04:18:48;;;;;;;36.80;17.85;;;;;22.20;95567.00;;;;8322047;28;20208;-68
2022/06/20 04:22:55;;;;;;;34.05;17.33;;;;;22.40;95578.00;;;;8321326;28;20205;-69
2022/06/20 04:27:04;;;;;;;29.45;15.85;;;;;22.50;95591.00;;;;8321937;28;20228;-70
2022/06/20 04:31:17;;;;;;;21.38;14.95;;;;;22.70;95614.00;;;;8322077;28;20253;-69
2022/06/20 04:35:25;;;;;;;23.35;16.20;;;;;22.80;95611.00;;;;8320545;28;20662;-69
2022/06/20 04:39:37;;;;;;;27.27;16.05;;;;;22.80;95626.00;;;;8319271;28;20534;-69
2022/06/20 04:43:56;;;;;;;33.47;17.10;;;;;23.00;95631.00;;;;8321448;28;20233;-69
2022/06/20 04:48:07;;;;;;;34.25;17.13;;;;;23.40;95641.00;;;;8320599;28;20202;-70
2022/06/20 04:52:15;;;;;;;26.77;15.82;;;;;23.70;95652.00;;;;8318710;28;20363;-69
2022/06/20 04:56:26;;;;;;;25.08;15.90;;;;;23.70;95653.00;;;;8321474;28;20193;-69
2022/06/20 05:00:41;;;;;;;28.73;17.30;;;;;23.70;95651.00;;;;8313129;28;20206;-69
2022/06/20 05:04:49;;;;;;;30.10;15.13;;;;;23.80;95651.00;;;;8320604;28;20236;-69
2022/06/20 05:08:54;;;;;;;30.55;16.45;;;;;23.90;95652.00;;;;8316536;28;20287;-69
2022/06/20 05:13:01;;;;;;;29.30;15.60;;;;;24.00;95645.00;;;;8319718;28;20284;-70
2022/06/20 05:17:09;;;;;;;33.67;16.48;;;;;24.20;95641.00;;;;8320442;28;20631;-69
2022/06/20 05:21:20;;;;;;;28.58;15.77;;;;;24.50;95647.00;;;;8324383;28;20272;-68
2022/06/20 05:25:26;;;;;;;20.77;11.93;;;;;25.10;95644.00;;;;8326494;28;20631;-69
2022/06/20 05:29:32;;;;;;;20.25;11.40;;;;;25.70;95644.00;;;;8326025;28;20223;-70
2022/06/20 05:33:42;;;;;;;24.90;10.30;;;;;26.10;95648.00;;;;8327480;28;20361;-68
2022/06/20 05:37:51;;;;;;;16.63;9.75;;;;;26.90;95646.00;;;;8326250;28;20859;-70
2022/06/20 05:41:54;;;;;;;20.60;9.27;;;;;27.60;95650.00;;;;8326758;28;20280;-69
2022/06/20 05:46:01;;;;;;;18.75;8.40;;;;;28.20;95647.00;;;;8327188;28;20889;-69
2022/06/20 05:50:12;;;;;;;20.35;8.45;;;;;28.60;95655.00;;;;8324276;28;20229;-69
2022/06/20 05:54:21;;;;;;;17.38;8.60;;;;;28.90;95651.00;;;;8325124;28;20198;-69
2022/06/20 05:58:28;;;;;;;13.20;7.10;;;;;28.30;95654.00;;;;8323420;28;20277;-70
2022/06/20 06:02:36;;;;;;;18.88;7.28;;;;;27.90;95665.00;;;;8321067;28;20241;-69
2022/06/20 06:06:44;;;;;;;14.23;7.80;;;;;27.90;95680.00;;;;8330703;28;20198;-69
2022/06/20 06:10:52;;;;;;;22.40;8.52;;;;;27.70;95654.00;;;;8325441;28;20624;-68
2022/06/20 06:15:05;;;;;;;18.88;7.88;;;;;27.60;95677.00;;;;8326456;28;20197;-70
2022/06/20 06:19:17;;;;;;;16.05;7.78;;;;;27.50;95689.00;;;;8321468;28;20281;-68
2022/06/20 06:23:20;;;;;;;13.43;7.90;;;;;27.50;95703.00;;;;8324239;28;20201;-70
2022/06/20 06:27:29;;;;;;;19.08;7.82;;;;;27.50;95722.00;;;;8325376;28;20194;-70
2022/06/20 06:31:40;;;;;;;16.77;8.73;;;;;27.60;95729.00;;;;8322655;28;20231;-69
2022/06/20 06:35:47;;;;;;;15.82;7.40;;;;;27.80;95717.00;;;;8323696;28;20643;-70
2022/06/20 06:39:55;;;;;;;13.52;6.93;;;;;27.80;95734.00;;;;8332694;28;20225;-69
2022/06/20 06:44:02;;;;;;;15.23;7.25;;;;;28.10;95734.00;;;;8324907;28;20273;-69
2022/06/20 06:48:12;;;;;;;12.68;6.57;;;;;28.30;95763.00;;;;8321887;28;20201;-69
2022/06/20 06:52:20;;;;;;;14.73;6.80;;;;;28.50;95755.00;;;;8325593;28;20669;-69
2022/06/20 06:56:29;;;;;;;12.50;6.72;;;;;29.50;95755.00;;;;8324866;28;20324;-69
2022/06/20 07:00:37;;;;;;;16.02;7.30;;;;;30.30;95758.00;;;;8323815;28;20750;-68
2022/06/20 07:04:55;;;;;;;18.10;7.32;;;;;30.30;95782.00;;;;8322723;28;20245;-69
2022/06/20 07:09:08;;;;;;;15.82;7.18;;;;;30.20;95764.00;;;;8321363;28;20202;-69
2022/06/20 07:13:23;;;;;;;18.50;6.60;;;;;30.00;95774.00;;;;8323403;28;20655;-69
2022/06/20 07:17:34;;;;;;;11.57;5.68;;;;;30.30;95756.00;;;;8325216;28;20305;-69
2022/06/20 07:21:39;;;;;;;10.38;5.85;;;;;29.90;95716.00;;;;8322767;28;20635;-69
2022/06/20 07:25:45;;;;;;;17.67;6.20;;;;;28.50;95720.00;;;;8321431;28;20296;-69
2022/06/20 07:29:54;;;;;;;12.77;6.80;;;;;27.80;95704.00;;;;8321124;28;20229;-69
2022/06/20 07:34:06;;;;;;;15.55;5.93;;;;;27.70;95706.00;;;;8322866;28;20536;-70
2022/06/20 07:38:14;;;;;;;16.77;6.50;;;;;27.80;95715.00;;;;8321800;28;20201;-68
2022/06/20 07:42:28;;;;;;;10.73;5.80;;;;;28.00;95714.00;;;;8321250;28;20220;-69
2022/06/20 07:46:38;;;;;;;22.20;6.32;;;;;28.30;95715.00;;;;8321492;28;20277;-69
2022/06/20 07:50:47;;;;;;;15.80;6.60;;;;;28.40;95744.00;;;;8321611;28;20229;-69
2022/06/20 07:54:56;;;;;;;19.52;6.63;;;;;28.70;95757.00;;;;8323071;28;20737;-68
2022/06/20 07:59:06;;;;;;;15.25;6.05;;;;;29.00;95738.00;;;;8321851;28;20205;-70
2022/06/20 08:03:17;;;;;;;12.40;5.65;;;;;29.90;95763.00;;;;8318564;28;20315;-69
2022/06/20 08:07:26;;;;;;;9.45;5.50;;;;;30.70;95765.00;;;;8319884;28;20228;-69
2022/06/20 08:11:41;;;;;;;17.92;5.18;;;;;31.10;95780.00;;;;8321845;28;20217;-69
2022/06/20 08:15:50;;;;;;;14.20;4.97;;;;;31.00;95783.00;;;;8320672;28;20833;-69
2022/06/20 08:19:55;;;;;;;12.75;4.60;;;;;31.00;95777.00;;;;8317733;28;20289;-68
2022/06/20 08:24:16;;;;;;;8.82;4.70;;;;;30.90;95793.00;;;;8321030;28;20202;-68
2022/06/20 08:28:21;;;;;;;10.07;4.57;;;;;30.70;95796.00;;;;8320854;28;20204;-69
2022/06/20 08:32:31;;;;;;;10.27;4.88;;;;;30.90;95796.00;;;;8310635;28;20317;-70
2022/06/20 08:36:40;;;;;;;11.43;4.22;;;;;30.90;95826.00;;;;8314438;28;20204;-69
2022/06/20 08:41:24;;;;;;;16.58;5.05;;;;;31.00;95836.00;;;;8320507;28;20189;-69
2022/06/20 08:46:08;;;;;;;8.18;4.25;;;;;31.90;95841.00;;;;8311536;28;20197;-69
2022/06/20 08:50:47;;;;;;;9.57;4.20;;;;;32.40;95834.00;;;;8309924;28;20225;-69
2022/06/20 08:55:28;;;;;;;7.00;3.75;;;;;33.00;95842.00;;;;8315583;28;20304;-69
2022/06/20 08:59:50;;;;;;;6.13;3.90;;;;;33.40;95845.00;;;;8316213;28;20225;-69
2022/06/20 09:04:24;;;;;;;6.45;4.38;;;;;33.80;95852.00;;;;8319916;28;20697;-69
2022/06/20 09:08:44;;;;;;;6.68;4.40;;;;;34.00;95854.00;;;;8316372;28;20204;-70
2022/06/20 09:13:09;;;;;;;8.90;4.28;;;;;33.80;95858.00;;;;8318860;28;20224;-70
2022/06/20 09:17:21;;;;;;;8.73;4.47;;;;;32.90;95871.00;;;;8319780;28;20284;-70
2022/06/20 09:21:32;;;;;;;14.77;4.20;;;;;32.20;95868.00;;;;8313452;28;20673;-68
2022/06/20 09:25:49;;;;;;;13.52;4.28;;;;;31.90;95865.00;;;;8315983;28;20240;-69
2022/06/20 09:30:03;;;;;;;7.25;4.20;;;;;31.80;95885.00;;;;8320014;28;20211;-70
2022/06/20 09:34:38;;;;;;;8.15;4.10;;;;;31.40;95898.00;;;;8319017;28;20289;-70
2022/06/20 09:39:06;;;;;;;5.32;4.07;;;;;30.60;95910.00;;;;8313071;28;20292;-69
2022/06/20 09:43:22;;;;;;;7.95;4.55;;;;;30.00;95901.00;;;;8319340;28;20200;-69
2022/06/20 09:47:34;;;;;;;9.30;4.60;;;;;29.40;95888.00;;;;8311018;28;20208;-69
2022/06/20 09:51:48;;;;;;;13.45;4.43;;;;;29.50;95898.00;;;;8321128;28;20217;-69
2022/06/20 09:56:00;;;;;;;10.88;4.45;;;;;29.60;95927.00;;;;8319209;28;20292;-68
2022/06/20 10:00:11;;;;;;;9.35;4.90;;;;;29.50;95882.00;;;;8311781;28;20665;-70
2022/06/20 10:04:23;;;;;;;12.52;5.32;;;;;27.20;95870.00;;;;8318910;28;20229;-72
2022/06/20 10:08:58;;;;;;;8.80;5.10;;;;;26.40;95865.00;;;;8313062;28;20193;-70
2022/06/20 10:13:10;;;;;;;10.75;5.03;;;;;26.70;95880.00;;;;8324673;28;20238;-69
2022/06/20 10:17:22;;;;;;;10.90;5.07;;;;;27.40;95880.00;;;;8325183;28;20844;-69
2022/06/20 10:21:31;;;;;;;11.88;5.68;;;;;29.60;95889.00;;;;8320984;28;20201;-69
2022/06/20 10:25:57;;;;;;;13.00;5.07;;;;;30.90;95888.00;;;;8320486;28;20649;-69
2022/06/20 10:30:09;;;;;;;9.07;4.72;;;;;31.20;95881.00;;;;8329462;28;20204;-69
2022/06/20 10:34:22;;;;;;;7.93;4.50;;;;;30.60;95882.00;;;;8324690;28;20225;-68
2022/06/20 10:38:37;;;;;;;10.32;4.80;;;;;31.00;95882.00;;;;8324713;28;20204;-70
2022/06/20 10:42:51;;;;;;;12.73;5.95;;;;;31.70;95882.00;;;;8316931;28;20198;-71
2022/06/20 10:47:05;;;;;;;8.93;5.00;;;;;32.50;95875.00;;;;8322070;28;20247;-69
2022/06/20 10:51:15;;;;;;;12.50;5.43;;;;;32.90;95871.00;;;;8321620;28;20279;-68
2022/06/20 10:55:33;;;;;;;10.73;5.43;;;;;33.40;95860.00;;;;8324354;28;20680;-70
2022/06/20 10:59:48;;;;;;;11.40;5.32;;;;;33.90;95869.00;;;;8323388;28;20281;-70
2022/06/20 11:04:15;;;;;;;10.05;5.57;;;;;34.30;95882.00;;;;8323075;28;20850;-69
2022/06/20 11:08:33;;;;;;;14.85;5.10;;;;;34.20;95869.00;;;;8323549;28;20189;-70
2022/06/20 11:12:49;;;;;;;8.60;4.72;;;;;34.20;95877.00;;;;8315706;28;20314;-69
2022/06/20 11:17:01;;;;;;;7.88;5.22;;;;;34.60;95880.00;;;;8321719;28;20200;-70
2022/06/20 11:21:11;;;;;;;10.00;5.07;;;;;34.90;95869.00;;;;8322954;28;20269;-70
2022/06/20 11:25:23;;;;;;;12.05;5.20;;;;;35.40;95874.00;;;;8322507;28;20210;-70
2022/06/20 11:29:51;;;;;;;8.82;5.50;;;;;35.90;95858.00;;;;8324186;28;20277;-68
2022/06/20 11:34:11;;;;;;;9.00;5.28;;;;;35.80;95882.00;;;;8315917;28;20247;-68
2022/06/20 11:38:52;;;;;;;8.13;4.95;;;;;35.70;95867.00;;;;8321059;28;20202;-70
2022/06/20 11:43:26;;;;;;;9.52;5.22;;;;;35.90;95869.00;;;;8322356;28;20205;-70
2022/06/20 11:47:52;;;;;;;12.45;5.10;;;;;35.20;95878.00;;;;8315037;28;20220;-69
2022/06/20 11:52:06;;;;;;;16.10;5.90;;;;;35.20;95867.00;;;;8317554;28;20315;-70
2022/06/20 11:56:19;;;;;;;14.30;5.70;;;;;35.90;95872.00;;;;8321987;28;20738;-70
2022/06/20 12:00:50;;;;;;;12.05;5.80;;;;;36.30;95860.00;;;;8317789;28;20205;-69
2022/06/20 12:04:59;;;;;;;5.93;5.03;;;;;36.60;95858.00;;;;8321142;28;20241;-69
2022/06/20 12:09:32;;;;;;;13.40;5.50;;;;;36.90;95843.00;;;;8313003;28;20201;-70
2022/06/20 12:13:52;;;;;;;7.97;5.18;;;;;37.00;95851.00;;;;8321410;28;21072;-68
2022/06/20 12:18:08;;;;;;;10.88;5.25;;;;;36.70;95842.00;;;;8326032;28;20231;-69
2022/06/20 12:26:39;;;;;;;7.72;5.18;;;;;36.80;95851.00;;;;8316054;28;20205;-70
2022/06/20 12:30:43;;;;;;;11.60;5.05;;;;;35.60;95865.00;;;;8321242;28;20271;-69
2022/06/20 12:34:54;;;;;;;7.40;4.55;;;;;34.80;95860.00;;;;8319999;28;20316;-69
2022/06/20 12:39:03;;;;;;;10.65;4.82;;;;;34.80;95853.00;;;;8319454;28;20285;-68
2022/06/20 12:43:12;;;;;;;6.40;4.78;;;;;34.50;95845.00;;;;8320856;28;20205;-69
2022/06/20 12:47:43;;;;;;;11.57;5.50;;;;;34.80;95853.00;;;;8320282;28;20197;-69
2022/06/20 12:51:55;;;;;;;12.65;4.88;;;;;35.30;95858.00;;;;8317513;28;20267;-70
2022/06/20 12:56:10;;;;;;;10.98;4.50;;;;;34.60;95849.00;;;;8317483;28;20469;-68
2022/06/20 13:00:34;;;;;;;9.52;4.63;;;;;34.20;95857.00;;;;8312095;28;20258;-68
2022/06/20 13:05:09;;;;;;;8.55;4.80;;;;;33.90;95839.00;;;;8319683;28;20712;-69
2022/06/20 13:09:46;;;;;;;12.32;4.80;;;;;34.10;95853.00;;;;8318449;28;20284;-69
2022/06/20 13:14:20;;;;;;;6.05;4.22;;;;;34.00;95861.00;;;;8293250;28;20312;-69
2022/06/20 13:18:58;;;;;;;4.25;3.38;;;;;33.30;95873.00;;;;8320216;28;20578;-69
2022/06/20 13:23:27;;;;;;;12.65;4.07;;;;;33.20;95875.00;;;;8313486;28;20789;-68
2022/06/20 13:27:45;;;;;;;7.70;3.20;;;;;32.90;95899.00;;;;8321328;28;20198;-68
2022/06/20 13:31:53;;;;;;;8.30;2.92;;;;;32.60;95879.00;;;;8319463;28;20324;-69
2022/06/20 13:36:02;;;;;;;4.13;2.72;;;;;33.20;95867.00;;;;8318452;28;20277;-68
2022/06/20 13:40:21;;;;;;;5.57;4.13;;;;;33.60;95859.00;;;;8319969;28;20202;-69
2022/06/20 13:44:36;;;;;;;14.75;4.47;;;;;33.00;95892.00;;;;8321952;28;20773;-68
2022/06/20 13:48:43;;;;;;;8.95;4.13;;;;;32.20;95895.00;;;;8324558;28;20213;-68
2022/06/20 13:53:16;;;;;;;8.00;4.03;;;;;31.10;95916.00;;;;8325399;28;20271;-69
2022/06/20 13:57:25;;;;;;;9.00;4.65;;;;;30.10;95917.00;;;;8323499;28;20197;-68
2022/06/20 14:01:37;;;;;;;5.22;3.63;;;;;29.50;95924.00;;;;8325902;28;20280;-69
2022/06/20 14:05:42;;;;;;;11.80;4.15;;;;;29.20;95938.00;;;;8336370;28;20288;-68
2022/06/20 14:09:51;;;;;;;6.07;3.22;;;;;29.00;95937.00;;;;8325037;28;20204;-69
2022/06/20 14:13:56;;;;;;;8.93;4.05;;;;;29.30;95941.00;;;;8325700;28;20304;-69
2022/06/20 14:18:04;;;;;;;7.57;4.03;;;;;29.40;95934.00;;;;8324699;28;20201;-68
2022/06/20 14:22:20;;;;;;;7.07;3.08;;;;;29.10;95946.00;;;;8317813;28;20648;-69
2022/06/20 14:26:34;;;;;;;7.32;3.45;;;;;28.70;95940.00;;;;8323488;28;20248;-68
2022/06/20 14:30:39;;;;;;;8.45;3.15;;;;;28.70;95944.00;;;;8325417;28;20694;-70
2022/06/20 14:39:29;;;;;;;9.15;3.25;;;;;29.40;95959.00;;;;8252332;28;20302;-69
2022/06/20 14:43:39;;;;;;;10.35;3.28;;;;;29.50;95959.00;;;;8285305;28;20200;-67
2022/06/20 14:47:53;;;;;;;7.25;3.03;;;;;29.70;95946.00;;;;8321623;28;20197;-73
2022/06/20 14:52:00;;;;;;;5.72;2.75;;;;;29.80;95958.00;;;;8328250;28;20200;-74
2022/06/20 14:56:11;;;;;;;6.63;3.08;;;;;28.90;95965.00;;;;8326244;28;20286;-73
2022/06/20 15:00:26;;;;;;;9.50;2.95;;;;;27.90;95990.00;;;;8323257;28;20280;-71
2022/06/20 15:04:37;;;;;;;8.88;3.20;;;;;27.20;95976.00;;;;8324444;28;20316;-72
2022/06/20 15:08:53;;;;;;;6.78;2.80;;;;;26.80;95975.00;;;;8327513;28;20216;-73
2022/06/20 15:13:01;;;;;;;8.38;2.80;;;;;26.80;95990.00;;;;8324952;28;20312;-70
2022/06/20 15:17:12;;;;;;;9.88;3.30;;;;;26.60;95991.00;;;;8323450;28;20284;-72
2022/06/20 15:21:25;;;;;;;8.27;3.05;;;;;26.50;96001.00;;;;8324586;28;20204;-70
2022/06/20 15:25:36;;;;;;;6.35;3.08;;;;;26.30;96007.00;;;;8323347;28;20190;-70
2022/06/20 15:29:50;;;;;;;5.70;2.85;;;;;26.00;95991.00;;;;8329987;28;20232;-74
2022/06/20 15:33:56;;;;;;;7.28;3.58;;;;;25.90;96006.00;;;;8323391;28;20218;-69
2022/06/20 15:38:05;;;;;;;5.30;2.40;;;;;25.60;96002.00;;;;8321452;28;20654;-69
2022/06/20 15:42:16;;;;;;;6.45;3.10;;;;;25.50;96010.00;;;;8323991;28;20711;-73
2022/06/20 15:46:24;;;;;;;11.45;3.30;;;;;25.20;96008.00;;;;8324805;28;20204;-70
2022/06/20 15:50:33;;;;;;;7.22;2.85;;;;;24.90;96010.00;;;;8315718;28;20197;-71
2022/06/20 15:54:57;;;;;;;5.47;3.00;;;;;24.80;96004.00;;;;8323401;28;20225;-70
2022/06/20 15:59:16;;;;;;;6.75;2.72;;;;;24.80;96002.00;;;;8321138;28;20193;-71
2022/06/20 16:03:37;;;;;;;2.90;2.70;;;;;24.70;96005.00;;;;8321306;28;20324;-73
2022/06/20 16:07:49;;;;;;;5.97;2.95;;;;;24.60;95991.00;;;;8314143;28;20678;-72
2022/06/20 16:12:06;;;;;;;7.30;3.28;;;;;24.50;96004.00;;;;8321944;28;20574;-69
2022/06/20 16:16:11;;;;;;;4.70;3.03;;;;;24.40;96002.00;;;;8323545;28;20236;-69
2022/06/20 16:20:25;;;;;;;3.63;2.88;;;;;24.10;96034.00;;;;8321968;28;20190;-70
2022/06/20 16:24:59;;;;;;;9.85;3.70;;;;;23.40;96037.00;;;;8316681;28;20201;-73
2022/06/20 16:29:19;;;;;;;7.07;4.45;;;;;21.70;96043.00;;;;8328219;28;20193;-72
2022/06/20 16:33:23;;;;;;;11.70;3.88;;;;;20.70;95995.00;;;;8313264;28;20229;-73
2022/06/20 16:37:28;;;;;;;8.95;4.38;;;;;20.10;96019.00;;;;8312657;28;20812;-71
2022/06/20 16:41:54;;;;;;;6.60;3.97;;;;;19.80;96017.00;;;;8322731;28;20194;-71
2022/06/20 16:46:02;;;;;;;10.77;4.15;;;;;19.80;95974.00;;;;8321343;28;20190;-77
2022/06/20 16:50:15;;;;;;;10.60;4.80;;;;;20.10;96014.00;;;;8318930;28;20228;-72
2022/06/20 16:54:23;;;;;;;9.20;4.68;;;;;20.60;96040.00;;;;8312805;28;20232;-72
2022/06/20 16:58:39;;;;;;;4.85;4.03;;;;;20.90;96037.00;;;;8316167;28;20241;-76
2022/06/20 17:02:53;;;;;;;7.93;4.35;;;;;21.10;96035.00;;;;8321119;28;20716;-76
2022/06/20 17:06:59;;;;;;;11.23;4.60;;;;;21.20;96023.00;;;;8325613;28;20229;-77
2022/06/20 17:11:12;;;;;;;7.35;4.07;;;;;21.20;96021.00;;;;8321295;28;20209;-75
2022/06/20 17:15:31;;;;;;;7.53;3.80;;;;;21.40;96016.00;;;;8321815;28;20221;-74
2022/06/20 17:19:41;;;;;;;7.32;3.95;;;;;22.00;96009.00;;;;8318737;28;20196;-78
2022/06/20 17:23:58;;;;;;;5.03;3.67;;;;;22.50;96017.00;;;;8324205;28;20216;-75
2022/06/20 17:28:08;;;;;;;5.55;3.55;;;;;23.20;96020.00;;;;8331089;28;20228;-73
2022/06/20 17:32:18;;;;;;;7.20;3.35;;;;;23.80;96013.00;;;;8329581;28;20653;-73
2022/06/20 17:36:34;;;;;;;5.28;3.10;;;;;24.10;96020.00;;;;8326866;28;20229;-76
2022/06/20 17:40:44;;;;;;;3.92;3.00;;;;;24.50;96031.00;;;;8321421;28;20269;-77
2022/06/20 17:44:58;;;;;;;4.85;3.03;;;;;25.10;96025.00;;;;8325907;28;20280;-75
2022/06/20 17:49:09;;;;;;;4.82;2.80;;;;;25.60;96034.00;;;;8326233;28;20273;-75
2022/06/20 17:53:23;;;;;;;3.13;2.83;;;;;25.80;96032.00;;;;8326120;28;20225;-73
2022/06/20 17:57:35;;;;;;;4.53;2.75;;;;;25.10;96036.00;;;;8326834;28;20208;-73
2022/06/20 18:01:45;;;;;;;2.72;2.47;;;;;24.10;96041.00;;;;8326250;28;20709;-76
2022/06/20 18:05:51;;;;;;;5.30;3.05;;;;;23.30;96052.00;;;;8330601;28;20461;-73
2022/06/20 18:10:01;;;;;;;5.10;2.42;;;;;22.80;96065.00;;;;8326486;28;20393;-75
2022/06/20 18:14:11;;;;;;;5.38;2.67;;;;;22.40;96077.00;;;;8332318;28;20308;-73
2022/06/20 18:18:20;;;;;;;2.67;2.47;;;;;22.10;96075.00;;;;8326606;28;20223;-74
2022/06/20 18:22:28;;;;;;;3.28;2.40;;;;;21.80;96081.00;;;;8325598;28;20280;-75
2022/06/20 18:26:39;;;;;;;4.95;2.70;;;;;21.60;96091.00;;;;8318079;28;20284;-72
2022/06/20 18:30:47;;;;;;;2.90;2.70;;;;;21.50;96093.00;;;;8317274;28;20204;-73
2022/06/20 18:34:53;;;;;;;3.70;2.30;;;;;21.40;96109.00;;;;8320889;28;20279;-75
2022/06/20 18:39:21;;;;;;;2.63;2.47;;;;;21.20;96123.00;;;;8321929;28;20212;-73
2022/06/20 18:43:27;;;;;;;2.50;2.30;;;;;21.10;96128.00;;;;8320920;28;20265;-75
2022/06/20 18:47:45;;;;;;;2.00;1.90;;;;;20.90;96133.00;;;;8322019;28;20321;-72
2022/06/20 18:52:13;;;;;;;1.90;1.80;;;;;20.70;96132.00;;;;8324927;28;20204;-73
2022/06/20 18:56:31;;;;;;;3.83;1.90;;;;;20.50;96140.00;;;;8322444;28;20263;-74
2022/06/20 19:01:10;;;;;;;2.13;1.92;;;;;20.30;96149.00;;;;8317846;28;20196;-73
2022/06/20 19:05:32;;;;;;;2.15;1.80;;;;;20.10;96153.00;;;;8321301;28;20311;-73
2022/06/20 19:10:01;;;;;;;1.70;1.60;;;;;19.90;96156.00;;;;8323302;28;20193;-73
2022/06/20 19:14:17;;;;;;;1.75;1.65;;;;;19.70;96168.00;;;;8323552;28;20304;-74
2022/06/20 19:18:45;;;;;;;3.78;1.48;;;;;19.50;96166.00;;;;8323524;28;20281;-74
2022/06/20 19:23:24;;;;;;;1.50;1.48;;;;;19.40;96182.00;;;;8321017;28;20289;-74
2022/06/20 19:27:48;;;;;;;2.17;1.98;;;;;19.20;96187.00;;;;8322805;28;20278;-73
2022/06/20 19:31:56;;;;;;;2.03;1.40;;;;;19.10;96176.00;;;;8314803;28;20224;-72
2022/06/20 19:36:08;;;;;;;2.67;1.60;;;;;18.90;96188.00;;;;8322641;28;20277;-73
2022/06/20 19:40:22;;;;;;;1.45;1.30;;;;;18.80;96198.00;;;;8323010;28;20248;-72
2022/06/20 19:44:40;;;;;;;1.85;1.63;;;;;18.70;96215.00;;;;8313375;28;20213;-72
2022/06/20 19:48:45;;;;;;;2.80;1.33;;;;;18.60;96212.00;;;;8319822;28;20202;-73
2022/06/20 19:52:53;;;;;;;3.60;1.55;;;;;18.40;96235.00;;;;8320283;28;20280;-71
2022/06/20 19:57:10;;;;;;;1.70;1.60;;;;;18.30;96230.00;;;;8323269;28;20232;-71
2022/06/20 20:01:50;;;;;;;1.52;1.27;;;;;18.10;96240.00;;;;8322609;28;20266;-72
2022/06/20 20:05:59;;;;;;;7.43;1.58;;;;;18.00;96246.00;;;;8288441;28;20226;-72
2022/06/20 20:10:08;;;;;;;1.70;1.60;;;;;17.90;96237.00;;;;8290165;28;20310;-73
2022/06/20 20:14:14;;;;;;;5.18;1.48;;;;;17.80;96240.00;;;;8289584;28;20237;-73
2022/06/20 20:18:29;;;;;;;4.57;1.52;;;;;17.70;96246.00;;;;8293838;28;20204;-72
2022/06/20 20:22:40;;;;;;;2.60;1.75;;;;;17.60;96253.00;;;;8294097;28;20286;-72
2022/06/20 20:27:05;;;;;;;4.65;2.47;;;;;17.50;96262.00;;;;8288146;28;20206;-72
2022/06/20 20:31:18;;;;;;;2.67;1.80;;;;;17.40;96276.00;;;;8289145;28;20232;-72
2022/06/20 20:35:35;;;;;;;2.90;1.50;;;;;17.30;96273.00;;;;8288542;28;20230;-72
2022/06/20 20:40:15;;;;;;;1.60;1.60;;;;;17.10;96270.00;;;;8288790;28;20202;-71
2022/06/20 20:44:49;;;;;;;1.50;1.40;;;;;17.00;96265.00;;;;8286945;28;22084;-72
2022/06/20 20:48:58;;;;;;;1.70;1.60;;;;;16.90;96274.00;;;;8284738;28;20268;-72
2022/06/20 20:53:09;;;;;;;1.80;1.70;;;;;16.80;96268.00;;;;8287836;28;20194;-72
2022/06/20 20:57:19;;;;;;;1.80;1.70;;;;;16.80;96282.00;;;;8279858;28;20632;-71
2022/06/20 21:01:33;;;;;;;2.20;1.92;;;;;16.70;96284.00;;;;8289141;28;20217;-71
2022/06/20 21:05:41;;;;;;;2.92;1.33;;;;;16.60;96287.00;;;;8283140;28;20248;-72
2022/06/20 21:09:50;;;;;;;1.85;1.20;;;;;16.50;96294.00;;;;8289010;28;20206;-73
2022/06/20 21:13:58;;;;;;;1.63;1.52;;;;;16.50;96297.00;;;;8288747;28;20285;-71